ENBN

Brønnøysund Airport

Brønnøy, Norway
METAR ENBN 191350Z 10004KT 080V220 9999 FEW020 02/01 Q1038
Observed Flight Rules
Nov-19 @ 13:50 UTC (20 minutes ago) Visual Flight Rules
Wind Visibility Clouds
100° at 4 knots 10,000+ meters
  • Few at 2,000' AGL
Temperatures Readings
Current 2°C / 36°F
Dewpoint 1°C / 34°F
Humidity 93%
Altimeter 30.65" Hg
Pressure 1038 hPa
Elevation 9
METAR ENBN 191350Z 10004KT 080V220 9999 FEW020 02/01 Q1038
Observed Flight Rules
Nov-19 @ 13:50 UTC
(20 minutes ago)
VFR
Wind Visibility
100° at 4 knots 10,000+ meters
Clouds
  • Few at 2,000' AGL
Temperature Dewpoint
2°C / 36°F 1°C / 34°F
Humidity Altimeter Pressure
93% 30.65" Hg 1038 hPa